Current | Forecast
Updated: 2:00 AM CEST on June 21, 2018
Observed at Asturias, Spain
Temperature 19°C
Humidity 94%
Dew Point 18°C
Wind Variable at 2 km/h
Pressure 1022 hPa (Steady)
Conditions Mostly Cloudy
Visibility 5.0 kilometers
UV 0 out of 16
Clouds (FEW) : 121 m
Mostly Cloudy (BKN) : 243 m
Yesterday's Maximum 21°C
Yesterday's Minimum 18°C approx.
Yesterday's Cooling Degree Days 2 approx.
Sunrise6:40 AM CEST
Sunset10:03 PM CEST
Moon Rise3:24 PM CEST
Moon Set3:00 AM CEST
Moon PhaseMoon Phase
First Quarter
Raw METARMETAR LEAS 210000Z VRB01KT 5000 BR FEW004 BKN008 19/18 Q1022 TEMPO 2000 BR BKN003


Monday
. High: 69° F.
Tuesday
. High: 75° F.
Wednesday
. High: 59° F.
Thursday
. High: 60° F.
Friday
. High: 71° F.
Saturday
. High: 68° F.
Sunday
. High: 66° F.
Monday
. High: 75° F.

Click here for Marine Information
Scientific forecaster discussion (NWS)

Units: English | Metric

Find the Weather for any City, State or Zipcode, or Country:

U.S. State List | Severe Weather | Tropical Storms | Ski Conditions
United States | Canada | Central America | South America | Asia | Europe | Australia | Africa | Islands

Weather Underground

© Copyright 2018
The Weather Company, LLC